createdAt,value
2022-09-12T00:01:15.496Z,4.13
2022-09-12T00:03:42.687Z,4.20
2022-09-12T00:06:12.847Z,4.20
2022-09-12T00:08:40.031Z,4.40
2022-09-12T00:11:09.060Z,4.60
2022-09-12T00:13:41.484Z,4.07
2022-09-12T00:16:16.194Z,4.63
2022-09-12T00:18:44.261Z,4.07
2022-09-12T00:21:11.121Z,4.23
2022-09-12T00:23:38.026Z,4.57
2022-09-12T00:26:06.776Z,4.53
2022-09-12T00:28:35.522Z,4.33
2022-09-12T00:31:10.013Z,4.50
2022-09-12T00:33:37.357Z,4.50
2022-09-12T00:36:06.926Z,4.50
2022-09-12T00:38:34.012Z,4.57
2022-09-12T00:41:00.957Z,4.43
2022-09-12T00:43:30.922Z,4.43
2022-09-12T00:45:59.071Z,4.47
2022-09-12T00:48:35.378Z,4.13
2022-09-12T00:51:03.052Z,3.83
2022-09-12T00:53:30.311Z,4.03
2022-09-12T00:55:58.680Z,4.40
2022-09-12T00:58:30.385Z,4.33
2022-09-12T01:00:58.911Z,4.70
2022-09-12T01:03:26.739Z,4.20
2022-09-12T01:06:09.402Z,3.33
2022-09-12T01:08:37.536Z,3.70
2022-09-12T01:11:06.153Z,4.07
2022-09-12T01:13:35.697Z,4.47
2022-09-12T01:16:07.437Z,4.40
2022-09-12T01:19:20.256Z,3.70
2022-09-12T01:22:09.049Z,4.47
2022-09-12T01:25:02.278Z,3.57
2022-09-12T01:27:48.815Z,3.90
2022-09-12T01:30:34.463Z,4.07
2022-09-12T01:33:17.397Z,4.47
2022-09-12T01:35:53.334Z,3.80
2022-09-12T01:38:26.405Z,4.43
2022-09-12T01:40:56.372Z,4.43
2022-09-12T01:43:50.307Z,4.23
2022-09-12T01:46:21.371Z,4.90
2022-09-12T01:48:56.450Z,4.43
2022-09-12T01:51:29.857Z,5.00
2022-09-12T01:54:22.882Z,4.13
2022-09-12T01:56:55.318Z,4.63
2022-09-12T01:59:39.519Z,4.50
2022-09-12T02:02:18.920Z,4.60
2022-09-12T02:04:56.658Z,4.37
2022-09-12T02:07:49.631Z,4.07
2022-09-12T02:10:23.974Z,4.00
2022-09-12T02:13:03.145Z,4.20
2022-09-12T02:15:37.870Z,3.80
2022-09-12T02:18:06.728Z,4.10
2022-09-12T02:20:54.875Z,4.43
2022-09-12T02:23:26.486Z,4.07
2022-09-12T02:26:02.339Z,4.47
2022-09-12T02:28:36.134Z,4.30
2022-09-12T02:31:29.010Z,4.53
2022-09-12T02:34:21.804Z,4.47
2022-09-12T02:37:13.190Z,5.20
2022-09-12T02:39:44.491Z,4.33
2022-09-12T02:42:12.480Z,4.70
2022-09-12T02:44:39.605Z,5.30
2022-09-12T02:47:11.569Z,4.80
2022-09-12T02:49:38.575Z,5.27
2022-09-12T02:52:05.630Z,5.10
2022-09-12T02:54:33.049Z,5.17
2022-09-12T02:57:00.083Z,5.07
2022-09-12T02:59:27.412Z,5.00
2022-09-12T03:02:23.720Z,4.93
2022-09-12T03:05:27.155Z,4.90
2022-09-12T03:08:21.018Z,5.30
2022-09-12T03:11:16.413Z,4.43
2022-09-12T03:13:58.478Z,4.63
2022-09-12T03:16:43.724Z,5.07
2022-09-12T03:19:13.288Z,4.70
2022-09-12T03:22:16.209Z,5.47
2022-09-12T03:24:54.609Z,4.70
2022-09-12T03:27:50.270Z,4.90
2022-09-12T03:30:17.251Z,5.33
2022-09-12T03:32:47.012Z,4.90
2022-09-12T03:35:15.260Z,4.60
2022-09-12T03:37:42.344Z,5.07
2022-09-12T03:40:11.696Z,4.60
2022-09-12T03:42:40.149Z,4.40
2022-09-12T03:45:08.910Z,4.53
2022-09-12T03:47:36.399Z,4.77
2022-09-12T03:50:04.672Z,4.90
2022-09-12T03:52:31.620Z,4.40
2022-09-12T03:54:58.458Z,4.57
2022-09-12T03:57:25.373Z,5.00
2022-09-12T03:59:52.133Z,5.03
2022-09-12T04:02:19.097Z,4.90
2022-09-12T04:04:48.882Z,5.17
2022-09-12T04:07:16.737Z,4.73
2022-09-12T04:09:43.601Z,4.87
2022-09-12T04:12:10.539Z,4.80
2022-09-12T04:14:37.621Z,4.57
2022-09-12T04:17:04.563Z,4.73
2022-09-12T04:19:31.352Z,4.80
2022-09-12T04:21:58.474Z,4.60
2022-09-12T04:24:25.641Z,4.10
2022-09-12T04:26:52.607Z,4.67
2022-09-12T04:29:19.561Z,4.33
2022-09-12T04:31:46.615Z,4.47
2022-09-12T04:34:13.568Z,4.90
2022-09-12T04:36:40.437Z,4.20
2022-09-12T04:39:07.809Z,5.00
2022-09-12T04:41:37.219Z,4.50
2022-09-12T04:44:06.816Z,4.97
2022-09-12T04:46:37.590Z,4.20
2022-09-12T04:49:05.591Z,3.40
2022-09-12T04:51:35.942Z,3.47
2022-09-12T04:54:17.859Z,3.37
2022-09-12T04:56:48.793Z,3.60
2022-09-12T04:59:17.148Z,3.53
2022-09-12T05:01:44.076Z,4.03
2022-09-12T05:04:13.047Z,4.20
2022-09-12T05:06:41.458Z,3.77
2022-09-12T05:09:11.603Z,4.10
2022-09-12T05:12:03.107Z,4.20
2022-09-12T05:14:28.613Z,3.73
2022-09-12T05:16:59.844Z,4.00
2022-09-12T05:19:27.577Z,3.53
2022-09-12T05:21:54.611Z,4.00
2022-09-12T05:24:21.450Z,3.97
2022-09-12T05:26:48.440Z,3.97
2022-09-12T05:29:15.405Z,4.00
2022-09-12T05:31:42.383Z,3.43
2022-09-12T05:34:10.133Z,4.13
2022-09-12T05:36:37.458Z,3.90
2022-09-12T05:39:04.663Z,3.63
2022-09-12T05:41:33.970Z,3.50
2022-09-12T05:44:02.749Z,3.57
2022-09-12T05:46:32.187Z,3.87
2022-09-12T05:49:04.674Z,4.20
2022-09-12T05:51:35.256Z,3.70
2022-09-12T05:54:03.454Z,3.87
2022-09-12T05:56:35.085Z,3.97
2022-09-12T05:59:06.465Z,3.83
2022-09-12T06:01:35.153Z,4.00
2022-09-12T06:04:05.277Z,3.80
2022-09-12T06:06:35.695Z,4.20
2022-09-12T06:09:05.324Z,4.40
2022-09-12T06:11:34.287Z,4.20
2022-09-12T06:14:01.473Z,4.50
2022-09-12T06:16:31.253Z,4.00
2022-09-12T06:19:03.807Z,4.13
2022-09-12T06:21:31.406Z,4.10
2022-09-12T06:23:58.944Z,4.10
2022-09-12T06:26:26.701Z,3.40
2022-09-12T06:28:56.073Z,3.00
2022-09-12T06:31:25.763Z,2.13
2022-09-12T06:33:54.672Z,2.07
2022-09-12T06:36:27.511Z,2.10
2022-09-12T06:39:00.991Z,2.00
2022-09-12T06:41:29.794Z,1.93
2022-09-12T06:43:57.190Z,2.40
2022-09-12T06:46:25.371Z,2.50
2022-09-12T06:48:52.447Z,2.40
2022-09-12T06:51:20.288Z,2.13
2022-09-12T06:53:48.245Z,2.27
2022-09-12T06:56:15.126Z,2.30
2022-09-12T06:58:43.538Z,2.30
2022-09-12T07:01:18.170Z,2.55
2022-09-12T07:04:04.801Z,2.03
2022-09-12T07:06:37.820Z,2.22
2022-09-12T07:09:07.052Z,2.30
2022-09-12T07:11:36.685Z,2.00
2022-09-12T07:14:06.106Z,2.00
2022-09-12T07:16:36.718Z,1.90
2022-09-12T07:19:05.782Z,2.03
2022-09-12T07:21:33.103Z,2.13
2022-09-12T07:24:00.146Z,2.30
2022-09-12T07:26:29.205Z,2.13
2022-09-12T07:29:18.725Z,2.08
2022-09-12T07:31:46.429Z,2.10
2022-09-12T07:34:13.925Z,2.17
2022-09-12T07:36:40.934Z,1.90
2022-09-12T07:39:07.813Z,2.38
2022-09-12T07:41:34.939Z,1.88
2022-09-12T07:44:03.277Z,1.92
2022-09-12T07:46:31.296Z,1.73
2022-09-12T07:48:59.983Z,2.53
2022-09-12T07:51:28.758Z,1.63
2022-09-12T07:53:56.655Z,1.20
2022-09-12T07:56:29.344Z,1.33
2022-09-12T07:58:57.235Z,1.00
2022-09-12T08:01:24.384Z,1.30
2022-09-12T08:03:55.762Z,1.33
2022-09-12T08:06:26.378Z,1.10
2022-09-12T08:08:55.781Z,1.27
2022-09-12T08:11:25.030Z,1.20
2022-09-12T08:13:55.692Z,1.50
2022-09-12T08:16:25.068Z,1.40
2022-09-12T08:18:52.201Z,1.45
2022-09-12T08:21:21.200Z,1.40
2022-09-12T08:23:54.066Z,1.00
2022-09-12T08:26:21.216Z,1.30
2022-09-12T08:28:48.984Z,1.38
2022-09-12T08:31:18.017Z,1.15
2022-09-12T08:33:45.532Z,1.10
2022-09-12T08:36:15.182Z,1.20
2022-09-12T08:38:46.978Z,1.10
2022-09-12T08:41:43.259Z,1.00
2022-09-12T08:44:31.607Z,1.17
2022-09-12T08:47:35.508Z,1.02
2022-09-12T08:50:08.836Z,1.10
2022-09-12T08:52:51.932Z,1.10
2022-09-12T08:55:41.345Z,0.90
2022-09-12T08:58:15.068Z,1.42
2022-09-12T09:00:55.997Z,1.00
2022-09-12T09:03:53.321Z,0.80
2022-09-12T09:06:32.258Z,0.90
2022-09-12T09:09:26.779Z,1.23
2022-09-12T09:11:59.881Z,1.05
2022-09-12T09:14:52.684Z,0.98
2022-09-12T09:17:22.149Z,0.93
2022-09-12T09:20:24.184Z,1.08
2022-09-12T09:22:57.291Z,1.02
2022-09-12T09:25:30.611Z,0.90
2022-09-12T09:28:04.283Z,1.10
2022-09-12T09:30:31.766Z,1.05
2022-09-12T09:33:02.025Z,1.20
2022-09-12T09:35:43.568Z,1.02
2022-09-12T09:38:25.637Z,1.10
2022-09-12T09:40:55.326Z,0.90
2022-09-12T09:43:25.512Z,0.77
2022-09-12T09:45:53.361Z,0.80
2022-09-12T09:48:28.843Z,0.88
2022-09-12T09:51:02.259Z,0.90
2022-09-12T09:53:46.836Z,0.60
2022-09-12T09:56:35.369Z,0.73
2022-09-12T09:59:33.657Z,0.88
2022-09-12T10:02:12.121Z,0.70
2022-09-12T10:04:55.214Z,0.90
2022-09-12T10:07:23.618Z,0.43
2022-09-12T10:10:16.584Z,0.52
2022-09-12T10:12:43.754Z,0.60
2022-09-12T10:15:26.172Z,0.50
2022-09-12T10:17:55.820Z,0.60
2022-09-12T10:20:44.248Z,0.47
2022-09-12T10:23:35.314Z,0.43
2022-09-12T10:26:05.226Z,0.60
2022-09-12T10:28:43.381Z,0.80
2022-09-12T10:31:15.631Z,0.40
2022-09-12T10:33:47.418Z,0.65
2022-09-12T10:36:15.645Z,0.47
2022-09-12T10:38:51.046Z,0.52
2022-09-12T10:41:18.694Z,0.50
2022-09-12T10:43:45.884Z,0.30
2022-09-12T10:46:19.512Z,0.68
2022-09-12T10:48:52.282Z,0.65
2022-09-12T10:51:25.309Z,0.63
2022-09-12T10:53:56.502Z,0.57
2022-09-12T10:56:31.408Z,0.50
2022-09-12T10:59:25.472Z,0.60
2022-09-12T11:01:59.217Z,0.40
2022-09-12T11:04:35.454Z,0.50
2022-09-12T11:07:10.801Z,0.50
2022-09-12T11:09:55.939Z,0.47
2022-09-12T11:12:28.237Z,0.70
2022-09-12T11:15:43.800Z,0.40
2022-09-12T11:18:38.573Z,0.50
2022-09-12T11:21:07.434Z,0.60
2022-09-12T11:23:52.467Z,0.50
2022-09-12T11:26:47.035Z,0.45
2022-09-12T11:29:19.829Z,0.50
2022-09-12T11:31:58.923Z,0.32
2022-09-12T11:34:49.571Z,0.60
2022-09-12T11:37:39.779Z,0.70
2022-09-12T11:40:28.548Z,0.70
2022-09-12T11:43:03.391Z,1.85
2022-09-12T11:45:36.289Z,0.82
2022-09-12T11:48:08.573Z,0.70
2022-09-12T11:50:35.738Z,0.50
2022-09-12T11:53:20.353Z,0.70
2022-09-12T11:56:13.769Z,0.68
2022-09-12T11:58:43.138Z,0.70
2022-09-12T12:01:20.996Z,0.65
2022-09-12T12:03:49.321Z,0.60
2022-09-12T12:06:21.699Z,0.60
2022-09-12T12:08:50.491Z,0.55
2022-09-12T12:11:36.993Z,0.68
2022-09-12T12:14:13.158Z,0.38
2022-09-12T12:16:41.639Z,0.90
2022-09-12T12:19:35.728Z,0.70
2022-09-12T12:22:17.064Z,0.90
2022-09-12T12:24:56.235Z,0.60
2022-09-12T12:27:45.181Z,0.90
2022-09-12T12:30:33.484Z,0.60
2022-09-12T12:33:10.409Z,0.38
2022-09-12T12:35:41.254Z,0.73
2022-09-12T12:38:30.049Z,0.60
2022-09-12T12:41:23.637Z,0.50
2022-09-12T12:43:52.434Z,0.43
2022-09-12T12:46:22.631Z,0.60
2022-09-12T12:48:55.563Z,0.60
2022-09-12T12:51:41.378Z,0.60
2022-09-12T12:54:30.274Z,0.57
2022-09-12T12:57:33.096Z,0.40
2022-09-12T13:00:26.021Z,0.50
2022-09-12T13:03:01.208Z,0.85
2022-09-12T13:05:30.677Z,0.40
2022-09-12T13:08:03.601Z,0.40
2022-09-12T13:10:31.294Z,0.47
2022-09-12T13:13:03.471Z,0.60
2022-09-12T13:15:36.497Z,0.50
2022-09-12T13:18:06.485Z,0.50
2022-09-12T13:20:44.565Z,0.75
2022-09-12T13:23:29.266Z,0.73
2022-09-12T13:25:58.429Z,0.70
2022-09-12T13:28:26.711Z,0.40
2022-09-12T13:30:59.600Z,0.47
2022-09-12T13:33:26.998Z,0.50
2022-09-12T13:36:05.782Z,0.30
2022-09-12T13:38:41.928Z,0.32
2022-09-12T13:41:08.821Z,0.40
2022-09-12T13:43:46.717Z,0.57
2022-09-12T13:46:19.686Z,0.50
2022-09-12T13:48:47.127Z,0.52
2022-09-12T13:51:25.157Z,0.60
2022-09-12T13:53:56.166Z,0.75
2022-09-12T13:56:23.287Z,0.60
2022-09-12T13:58:57.389Z,0.43
2022-09-12T14:01:37.205Z,0.45
2022-09-12T14:04:34.519Z,0.50
2022-09-12T14:07:19.710Z,0.52
2022-09-12T14:09:54.726Z,0.40
2022-09-12T14:12:32.413Z,0.50
2022-09-12T14:14:59.457Z,0.90
2022-09-12T14:17:31.524Z,0.80
2022-09-12T14:20:07.035Z,0.80
2022-09-12T14:22:35.991Z,0.50
2022-09-12T14:25:03.810Z,0.68
2022-09-12T14:27:45.825Z,1.00
2022-09-12T14:30:33.093Z,0.70
2022-09-12T14:33:10.064Z,0.45
2022-09-12T14:35:43.758Z,0.57
2022-09-12T14:38:16.874Z,0.60
2022-09-12T14:40:48.731Z,0.80
2022-09-12T14:43:25.862Z,0.65
2022-09-12T14:45:59.777Z,0.60
2022-09-12T14:48:31.949Z,0.60
2022-09-12T14:50:59.173Z,0.40
2022-09-12T14:53:36.006Z,0.50
2022-09-12T14:56:12.453Z,0.50
2022-09-12T14:58:41.069Z,0.50
2022-09-12T15:01:08.331Z,0.52
2022-09-12T15:03:36.782Z,0.70
2022-09-12T15:06:07.967Z,2.10
2022-09-12T15:08:35.034Z,1.85
2022-09-12T15:11:02.218Z,2.58
2022-09-12T15:13:30.819Z,0.63
2022-09-12T15:15:59.527Z,0.50
2022-09-12T15:18:29.564Z,1.20
2022-09-12T15:21:03.294Z,0.70
2022-09-12T15:23:35.342Z,0.70
2022-09-12T15:26:02.853Z,0.95
2022-09-12T15:28:31.258Z,0.90
2022-09-12T15:31:12.430Z,0.77
2022-09-12T15:33:39.568Z,0.95
2022-09-12T15:36:13.609Z,2.60
2022-09-12T15:38:40.559Z,0.80
2022-09-12T15:41:13.583Z,1.20
2022-09-12T15:43:40.548Z,0.55
2022-09-12T15:46:11.719Z,0.77
2022-09-12T15:48:39.011Z,1.20
2022-09-12T15:51:15.070Z,0.85
2022-09-12T15:53:42.628Z,0.75
2022-09-12T15:56:09.661Z,0.70
2022-09-12T15:58:36.811Z,0.80
2022-09-12T16:01:05.190Z,0.82
2022-09-12T16:03:32.406Z,4.80
2022-09-12T16:06:01.610Z,2.10
2022-09-12T16:08:31.427Z,8.90
2022-09-12T16:11:16.895Z,0.77
2022-09-12T16:13:43.793Z,2.17
2022-09-12T16:16:11.146Z,1.25
2022-09-12T16:18:40.622Z,0.60
2022-09-12T16:21:11.422Z,1.30
2022-09-12T16:23:45.970Z,0.75
2022-09-12T16:26:13.116Z,1.15
2022-09-12T16:28:40.941Z,1.15
2022-09-12T16:31:10.837Z,1.48
2022-09-12T16:33:38.804Z,2.08
2022-09-12T16:36:11.735Z,2.30
2022-09-12T16:38:50.147Z,2.20
2022-09-12T16:41:19.236Z,1.40
2022-09-12T16:43:46.387Z,2.20
2022-09-12T16:46:16.686Z,1.48
2022-09-12T16:48:51.561Z,1.17
2022-09-12T16:51:22.555Z,1.35
2022-09-12T16:53:49.835Z,1.27
2022-09-12T16:56:17.093Z,1.25
2022-09-12T16:58:44.184Z,1.20
2022-09-12T17:01:17.142Z,1.10
2022-09-12T17:03:44.218Z,1.02
2022-09-12T17:06:14.051Z,0.90
2022-09-12T17:08:43.660Z,1.20
2022-09-12T17:11:12.921Z,1.27
2022-09-12T17:14:03.346Z,1.35
2022-09-12T17:16:28.435Z,1.27
2022-09-12T17:18:56.025Z,1.30
2022-09-12T17:21:23.491Z,0.77
2022-09-12T17:23:50.726Z,1.33
2022-09-12T17:26:17.850Z,1.27
2022-09-12T17:28:44.986Z,1.25
2022-09-12T17:31:14.518Z,1.30
2022-09-12T17:33:42.005Z,1.35
2022-09-12T17:36:15.094Z,1.25
2022-09-12T17:38:43.470Z,1.80
2022-09-12T17:41:17.707Z,1.60
2022-09-12T17:43:56.585Z,1.85
2022-09-12T17:46:31.783Z,2.17
2022-09-12T17:49:18.738Z,2.63
2022-09-12T17:51:52.172Z,3.03
2022-09-12T17:54:20.855Z,5.32
2022-09-12T17:56:49.739Z,10.93
2022-09-12T17:59:20.171Z,6.05
2022-09-12T18:02:06.498Z,7.32
2022-09-12T18:04:33.615Z,4.57
2022-09-12T18:07:00.827Z,3.63
2022-09-12T18:09:28.419Z,2.65
2022-09-12T18:11:56.038Z,7.28
2022-09-12T18:14:23.765Z,12.40
2022-09-12T18:16:50.826Z,15.07
2022-09-12T18:19:18.360Z,16.33
2022-09-12T18:21:45.489Z,10.32
2022-09-12T18:24:12.467Z,10.80
2022-09-12T18:26:39.453Z,4.07
2022-09-12T18:29:07.402Z,2.80
2022-09-12T18:31:34.571Z,1.80
2022-09-12T18:34:05.896Z,1.45
2022-09-12T18:36:32.959Z,1.80
2022-09-12T18:38:59.998Z,1.23
2022-09-12T18:41:29.041Z,1.73
2022-09-12T18:43:57.712Z,1.58
2022-09-12T18:46:25.747Z,1.50
2022-09-12T18:48:55.397Z,1.58
2022-09-12T18:51:25.821Z,1.48
2022-09-12T18:54:00.679Z,2.67
2022-09-12T18:56:34.618Z,2.47
2022-09-12T18:59:06.766Z,2.30
2022-09-12T19:01:36.631Z,2.40
2022-09-12T19:04:05.026Z,2.35
2022-09-12T19:06:35.312Z,2.47
2022-09-12T19:09:07.335Z,2.55
2022-09-12T19:11:39.998Z,2.50
2022-09-12T19:14:07.665Z,2.10
2022-09-12T19:16:35.253Z,1.83
2022-09-12T19:19:02.993Z,1.83
2022-09-12T19:21:31.511Z,2.47
2022-09-12T19:24:01.835Z,2.13
2022-09-12T19:26:29.529Z,2.40
2022-09-12T19:28:56.922Z,2.50
2022-09-12T19:31:24.594Z,2.08
2022-09-12T19:33:54.771Z,3.43
2022-09-12T19:36:43.952Z,2.27
2022-09-12T19:39:10.047Z,1.90
2022-09-12T19:41:37.359Z,2.10
2022-09-12T19:44:04.674Z,1.93
2022-09-12T19:46:31.794Z,1.80
2022-09-12T19:48:58.796Z,1.80
2022-09-12T19:51:26.428Z,2.13
2022-09-12T19:53:53.979Z,2.00
2022-09-12T19:56:25.344Z,1.93
2022-09-12T19:58:56.448Z,2.17
2022-09-12T20:01:28.319Z,2.40
2022-09-12T20:03:56.758Z,2.00
2022-09-12T20:06:23.978Z,2.23
2022-09-12T20:08:50.821Z,2.20
2022-09-12T20:11:20.166Z,2.00
2022-09-12T20:13:47.593Z,1.83
2022-09-12T20:16:33.571Z,1.93
2022-09-12T20:19:07.161Z,2.13
2022-09-12T20:21:36.138Z,1.90
2022-09-12T20:24:09.704Z,2.00
2022-09-12T20:26:36.637Z,1.90
2022-09-12T20:29:05.317Z,2.43
2022-09-12T20:31:33.387Z,1.70
2022-09-12T20:34:00.476Z,1.70
2022-09-12T20:36:27.603Z,2.10
2022-09-12T20:38:57.502Z,2.60
2022-09-12T20:41:25.603Z,2.27
2022-09-12T20:43:54.193Z,2.20
2022-09-12T20:46:22.635Z,2.07
2022-09-12T20:48:51.290Z,2.30
2022-09-12T20:51:19.416Z,2.03
2022-09-12T20:53:47.045Z,1.90
2022-09-12T20:56:15.040Z,2.10
2022-09-12T20:58:44.495Z,2.10
2022-09-12T21:01:13.946Z,1.90
2022-09-12T21:03:42.501Z,2.80
2022-09-12T21:06:10.886Z,6.50
2022-09-12T21:08:38.080Z,4.90
2022-09-12T21:11:06.042Z,3.83
2022-09-12T21:13:33.794Z,2.57
2022-09-12T21:16:03.168Z,2.00
2022-09-12T21:18:33.670Z,1.80
2022-09-12T21:21:00.969Z,1.70
2022-09-12T21:23:28.688Z,2.20
2022-09-12T21:25:55.739Z,1.87
2022-09-12T21:28:22.874Z,2.00
2022-09-12T21:30:51.120Z,2.10
2022-09-12T21:33:22.036Z,2.03
2022-09-12T21:35:49.192Z,2.00
2022-09-12T21:38:17.278Z,2.30
2022-09-12T21:40:44.587Z,1.87
2022-09-12T21:43:13.044Z,2.80
2022-09-12T21:45:40.412Z,2.20
2022-09-12T21:48:07.666Z,2.17
2022-09-12T21:50:34.649Z,2.10
2022-09-12T21:53:01.490Z,2.30
2022-09-12T21:55:28.539Z,2.23
2022-09-12T21:57:56.943Z,2.57
2022-09-12T22:00:24.108Z,2.30
2022-09-12T22:02:51.018Z,2.40
2022-09-12T22:05:19.566Z,2.10
2022-09-12T22:07:46.969Z,2.33
2022-09-12T22:10:13.899Z,2.10
2022-09-12T22:12:45.361Z,2.30
2022-09-12T22:15:38.808Z,2.10
2022-09-12T22:18:00.618Z,2.40
2022-09-12T22:20:27.615Z,2.40
2022-09-12T22:23:13.077Z,2.30
2022-09-12T22:25:40.267Z,2.20
2022-09-12T22:28:07.204Z,2.37
2022-09-12T22:30:35.447Z,2.10
2022-09-12T22:33:02.426Z,2.37
2022-09-12T22:35:29.415Z,2.30
2022-09-12T22:37:56.420Z,1.93
2022-09-12T22:40:23.365Z,2.00
2022-09-12T22:42:52.856Z,2.17
2022-09-12T22:45:20.091Z,2.00
2022-09-12T22:47:47.205Z,1.93
2022-09-12T22:50:14.278Z,1.80
2022-09-12T22:52:41.679Z,1.97
2022-09-12T22:55:09.715Z,1.60
2022-09-12T22:57:37.478Z,2.00
2022-09-12T23:00:07.965Z,2.07
2022-09-12T23:02:34.979Z,1.80
2022-09-12T23:05:02.610Z,2.00
2022-09-12T23:07:29.724Z,1.73
2022-09-12T23:09:56.925Z,1.83
2022-09-12T23:12:24.618Z,1.90
2022-09-12T23:14:51.553Z,2.07
2022-09-12T23:17:18.730Z,2.17
2022-09-12T23:19:46.069Z,2.00
2022-09-12T23:22:12.997Z,2.27
2022-09-12T23:24:39.917Z,2.17
2022-09-12T23:27:06.746Z,2.20
2022-09-12T23:29:35.328Z,2.03
2022-09-12T23:32:03.693Z,2.23
2022-09-12T23:34:30.933Z,2.20
2022-09-12T23:36:57.929Z,2.27
2022-09-12T23:39:24.962Z,2.13
2022-09-12T23:41:52.115Z,2.10
2022-09-12T23:44:19.012Z,2.30
2022-09-12T23:46:45.849Z,2.20
2022-09-12T23:49:12.759Z,2.43
2022-09-12T23:51:39.689Z,2.33
2022-09-12T23:54:06.550Z,2.10
2022-09-12T23:56:33.426Z,2.50
2022-09-12T23:59:00.438Z,2.50
